Time;durP1;ratioP1;P1;durP2;ratioP2;P2;SDS_P1;SDS_P2;PMS_P1;PMS_P2;Temp;Humidity;BMP_temperature;BMP_pressure;BME280_temperature;BME280_humidity;BME280_pressure;Samples;Min_cycle;Max_cycle;Signal;HPM_P1;HPM_P2
2022/04/02 00:00:18;;;;;;;3.33;3.10;;;;;;;;;;2062605;28;20190;-60
2022/04/02 00:01:18;;;;;;;4.10;3.77;;;;;;;;;;2072760;28;20231;-59
2022/04/02 00:02:18;;;;;;;3.53;3.30;;;;;;;;;;2071444;28;20177;-61
2022/04/02 00:03:19;;;;;;;4.00;3.70;;;;;;;;;;2072593;28;20611;-60
2022/04/02 00:04:20;;;;;;;3.80;3.50;;;;;;;;;;2072462;28;20572;-61
2022/04/02 00:05:21;;;;;;;3.93;3.27;;;;;;;;;;2073202;28;20276;-62
2022/04/02 00:06:21;;;;;;;3.20;2.97;;;;;;;;;;2073429;28;20692;-62
2022/04/02 00:07:21;;;;;;;4.10;3.13;;;;;;;;;;2073408;28;20200;-62
2022/04/02 00:08:22;;;;;;;3.57;3.00;;;;;;;;;;2074054;28;20233;-63
2022/04/02 00:09:22;;;;;;;3.53;3.23;;;;;;;;;;2073927;28;20633;-60
2022/04/02 00:10:23;;;;;;;4.13;3.83;;;;;;;;;;2074372;28;20160;-61
2022/04/02 00:11:24;;;;;;;3.20;3.00;;;;;;;;;;2073854;28;20180;-59
2022/04/02 00:12:24;;;;;;;2.80;2.60;;;;;;;;;;2073784;28;20252;-61
2022/04/02 00:13:27;;;;;;;3.30;2.90;;;;;;;;;;2073283;28;20193;-59
2022/04/02 00:14:27;;;;;;;3.77;2.90;;;;;;;;;;2073149;28;20181;-56
2022/04/02 00:15:27;;;;;;;3.07;2.77;;;;;;;;;;2073393;28;20169;-61
2022/04/02 00:16:27;;;;;;;3.63;3.43;;;;;;;;;;2073421;28;20235;-61
2022/04/02 00:17:28;;;;;;;3.33;3.00;;;;;;;;;;2073337;28;20268;-61
2022/04/02 00:18:31;;;;;;;3.70;3.40;;;;;;;;;;2073714;28;20168;-62
2022/04/02 00:19:31;;;;;;;3.93;3.73;;;;;;;;;;2073782;28;20177;-63
2022/04/02 00:20:32;;;;;;;3.43;3.20;;;;;;;;;;2073867;28;20196;-61
2022/04/02 00:21:32;;;;;;;2.87;2.67;;;;;;;;;;2073737;28;20195;-60
2022/04/02 00:22:32;;;;;;;3.53;3.23;;;;;;;;;;2073912;28;20176;-61
2022/04/02 00:23:35;;;;;;;3.33;3.13;;;;;;;;;;2073939;28;20189;-60
2022/04/02 00:24:36;;;;;;;4.03;3.17;;;;;;;;;;2073273;28;20202;-61
2022/04/02 00:25:36;;;;;;;3.23;3.03;;;;;;;;;;2073485;28;20169;-61
2022/04/02 00:26:36;;;;;;;3.43;3.13;;;;;;;;;;2073503;28;20204;-58
2022/04/02 00:27:37;;;;;;;3.10;2.80;;;;;;;;;;2073520;28;20200;-62
2022/04/02 00:28:39;;;;;;;4.23;3.30;;;;;;;;;;2065079;28;20169;-59
2022/04/02 00:29:42;;;;;;;3.83;3.53;;;;;;;;;;2065038;28;20770;-62
2022/04/02 00:30:43;;;;;;;2.97;2.77;;;;;;;;;;2065012;28;20174;-59
2022/04/02 00:31:43;;;;;;;3.13;2.93;;;;;;;;;;2073077;28;20584;-61
2022/04/02 00:32:44;;;;;;;4.03;3.73;;;;;;;;;;2065184;28;20285;-62
2022/04/02 00:33:45;;;;;;;3.60;3.30;;;;;;;;;;2064951;28;20177;-60
2022/04/02 00:34:45;;;;;;;3.97;3.43;;;;;;;;;;2056469;28;20253;-61
2022/04/02 00:35:46;;;;;;;3.17;2.80;;;;;;;;;;2064751;28;20403;-62
2022/04/02 00:36:46;;;;;;;3.73;3.10;;;;;;;;;;2064958;28;20224;-61
2022/04/02 00:37:47;;;;;;;3.53;3.23;;;;;;;;;;2064901;28;20184;-61
2022/04/02 00:38:47;;;;;;;3.43;2.90;;;;;;;;;;2073646;28;20204;-60
2022/04/02 00:39:47;;;;;;;4.63;2.80;;;;;;;;;;2073751;28;20177;-62
2022/04/02 00:40:47;;;;;;;3.10;2.90;;;;;;;;;;2073636;28;20173;-60
2022/04/02 00:41:48;;;;;;;3.43;3.13;;;;;;;;;;2073745;28;20235;-59
2022/04/02 00:42:48;;;;;;;3.40;3.20;;;;;;;;;;2073832;28;20173;-60
2022/04/02 00:43:55;;;;;;;3.07;2.87;;;;;;;;;;2064783;28;20256;-62
2022/04/02 00:44:56;;;;;;;3.67;3.27;;;;;;;;;;2064364;28;20212;-62
2022/04/02 00:45:57;;;;;;;3.80;3.43;;;;;;;;;;2064870;28;20291;-60
2022/04/02 00:46:57;;;;;;;3.10;2.83;;;;;;;;;;2048857;28;20196;-59
2022/04/02 00:47:58;;;;;;;3.13;2.83;;;;;;;;;;2056181;28;20206;-60
2022/04/02 00:48:58;;;;;;;3.37;3.07;;;;;;;;;;2056333;28;20170;-60
2022/04/02 00:49:59;;;;;;;3.10;2.80;;;;;;;;;;2056767;28;20552;-58
2022/04/02 00:51:00;;;;;;;4.80;3.77;;;;;;;;;;2064748;28;20229;-62
2022/04/02 00:52:00;;;;;;;3.53;3.23;;;;;;;;;;2064815;28;20649;-60
2022/04/02 00:53:01;;;;;;;3.47;3.20;;;;;;;;;;2064651;28;20474;-61
2022/04/02 00:54:01;;;;;;;4.77;3.33;;;;;;;;;;2072308;28;20180;-60
2022/04/02 00:55:02;;;;;;;4.40;2.97;;;;;;;;;;2064492;28;20177;-61
2022/04/02 00:56:04;;;;;;;2.93;2.70;;;;;;;;;;2056714;28;20279;-60
2022/04/02 00:57:04;;;;;;;5.50;3.30;;;;;;;;;;2064752;28;20278;-61
2022/04/02 00:58:05;;;;;;;4.23;2.80;;;;;;;;;;2073150;28;20418;-62
2022/04/02 00:59:06;;;;;;;3.30;3.00;;;;;;;;;;2072901;28;20208;-60
2022/04/02 01:00:06;;;;;;;3.33;3.13;;;;;;;;;;2069702;28;20251;-61
2022/04/02 01:01:07;;;;;;;4.57;3.40;;;;;;;;;;2072456;28;20180;-62
2022/04/02 01:02:12;;;;;;;3.07;2.77;;;;;;;;;;2063910;28;20174;-60
2022/04/02 01:03:13;;;;;;;3.30;3.07;;;;;;;;;;2056411;28;20261;-62
2022/04/02 01:04:16;;;;;;;3.27;2.97;;;;;;;;;;2056309;28;20188;-60
2022/04/02 01:05:18;;;;;;;3.30;2.60;;;;;;;;;;2063914;28;20197;-60
2022/04/02 01:06:19;;;;;;;3.73;3.40;;;;;;;;;;2064500;28;20284;-61
2022/04/02 01:07:19;;;;;;;4.60;3.03;;;;;;;;;;2064043;28;20197;-60
2022/04/02 01:08:20;;;;;;;3.37;3.17;;;;;;;;;;2064626;28;20610;-61
2022/04/02 01:09:22;;;;;;;4.13;2.83;;;;;;;;;;2064347;28;20546;-63
2022/04/02 01:10:25;;;;;;;5.50;3.03;;;;;;;;;;2064459;28;20178;-62
2022/04/02 01:11:39;;;;;;;4.30;3.40;;;;;;;;;;2064462;28;20170;-60
2022/04/02 01:12:45;;;;;;;3.23;2.93;;;;;;;;;;2064323;28;20688;-60
2022/04/02 01:13:46;;;;;;;3.10;2.90;;;;;;;;;;2064354;28;20178;-60
2022/04/02 01:14:47;;;;;;;3.40;2.93;;;;;;;;;;2064168;28;20240;-62
2022/04/02 01:16:05;;;;;;;3.17;2.83;;;;;;;;;;2066801;28;20264;-61
2022/04/02 01:17:06;;;;;;;3.30;3.00;;;;;;;;;;2073238;28;20544;-62
2022/04/02 01:18:07;;;;;;;3.00;2.80;;;;;;;;;;2064124;28;20173;-62
2022/04/02 01:19:10;;;;;;;3.00;2.80;;;;;;;;;;2064472;28;20650;-60
2022/04/02 01:20:11;;;;;;;3.10;2.90;;;;;;;;;;2064388;28;20173;-62
2022/04/02 01:21:11;;;;;;;3.20;2.90;;;;;;;;;;2056680;28;20197;-58
2022/04/02 01:22:18;;;;;;;2.83;2.63;;;;;;;;;;2065267;28;20200;-61
2022/04/02 01:23:28;;;;;;;3.17;2.90;;;;;;;;;;2064471;28;20201;-62
2022/04/02 01:24:30;;;;;;;3.50;3.07;;;;;;;;;;2063941;28;20202;-61
2022/04/02 01:25:34;;;;;;;3.17;2.60;;;;;;;;;;2056470;28;20170;-60
2022/04/02 01:26:39;;;;;;;3.20;2.93;;;;;;;;;;2057327;28;20663;-61
2022/04/02 01:27:46;;;;;;;3.40;3.10;;;;;;;;;;2057180;28;20194;-59
2022/04/02 01:28:53;;;;;;;2.87;2.50;;;;;;;;;;2056226;28;20502;-58
2022/04/02 01:29:58;;;;;;;3.10;2.80;;;;;;;;;;2050116;28;20163;-62
2022/04/02 01:31:05;;;;;;;3.33;3.00;;;;;;;;;;2057257;28;20174;-59
2022/04/02 01:32:06;;;;;;;3.93;3.23;;;;;;;;;;2057235;28;20202;-62
2022/04/02 01:33:07;;;;;;;3.57;2.77;;;;;;;;;;2056935;28;20178;-61
2022/04/02 01:34:07;;;;;;;3.07;2.73;;;;;;;;;;2065821;28;20166;-62
2022/04/02 01:35:09;;;;;;;4.87;3.37;;;;;;;;;;2072627;28;20609;-61
2022/04/02 01:36:11;;;;;;;5.07;4.53;;;;;;;;;;2064603;28;20268;-61
2022/04/02 01:37:33;;;;;;;3.17;2.93;;;;;;;;;;2059829;28;20180;-60
2022/04/02 01:38:37;;;;;;;4.77;3.43;;;;;;;;;;2054462;28;20201;-62
2022/04/02 01:39:37;;;;;;;4.47;3.37;;;;;;;;;;2062887;28;20253;-63
2022/04/02 01:40:38;;;;;;;3.47;2.90;;;;;;;;;;2063317;28;20212;-62
2022/04/02 01:41:40;;;;;;;2.80;2.70;;;;;;;;;;2056420;28;20178;-62
2022/04/02 01:42:41;;;;;;;5.63;4.43;;;;;;;;;;2052531;28;20267;-62
2022/04/02 01:43:44;;;;;;;4.20;3.80;;;;;;;;;;2055230;28;20174;-61
2022/04/02 01:44:51;;;;;;;3.83;3.00;;;;;;;;;;2055091;28;20229;-63
2022/04/02 01:45:57;;;;;;;2.67;2.43;;;;;;;;;;2064845;28;20212;-60
2022/04/02 01:47:00;;;;;;;2.80;2.60;;;;;;;;;;2063453;28;20220;-60
2022/04/02 01:48:01;;;;;;;2.70;2.60;;;;;;;;;;2053451;28;20475;-62
2022/04/02 01:49:12;;;;;;;3.03;2.83;;;;;;;;;;2056721;28;20675;-62
2022/04/02 01:50:12;;;;;;;3.40;3.10;;;;;;;;;;2063459;28;20181;-61
2022/04/02 01:51:17;;;;;;;3.83;2.77;;;;;;;;;;2071051;28;20750;-61
2022/04/02 01:52:19;;;;;;;3.47;2.80;;;;;;;;;;2063614;28;20170;-62
2022/04/02 01:53:21;;;;;;;2.87;2.67;;;;;;;;;;2054623;28;20187;-62
2022/04/02 01:54:21;;;;;;;2.67;2.47;;;;;;;;;;2061352;28;20273;-63
2022/04/02 01:55:27;;;;;;;2.87;2.67;;;;;;;;;;2068776;28;20197;-60
2022/04/02 01:56:34;;;;;;;3.27;3.07;;;;;;;;;;2064137;28;20911;-62
2022/04/02 01:57:37;;;;;;;2.77;2.57;;;;;;;;;;2059359;28;20547;-61
2022/04/02 01:58:37;;;;;;;3.20;2.90;;;;;;;;;;2053290;28;20182;-60
2022/04/02 01:59:44;;;;;;;2.70;2.50;;;;;;;;;;2056209;28;20627;-60
2022/04/02 02:00:46;;;;;;;2.60;2.50;;;;;;;;;;2065677;28;20174;-61
2022/04/02 02:01:47;;;;;;;2.97;2.77;;;;;;;;;;2064779;28;20216;-64
2022/04/02 02:02:48;;;;;;;2.93;2.73;;;;;;;;;;2061609;28;20431;-61
2022/04/02 02:03:49;;;;;;;2.50;2.40;;;;;;;;;;2065258;28;20177;-59
2022/04/02 02:04:50;;;;;;;2.30;2.20;;;;;;;;;;2075872;28;20231;-61
2022/04/02 02:05:50;;;;;;;3.20;2.73;;;;;;;;;;2065334;28;20189;-61
2022/04/02 02:06:50;;;;;;;2.90;2.70;;;;;;;;;;2057200;28;20193;-61
2022/04/02 02:07:53;;;;;;;3.23;2.77;;;;;;;;;;2055116;28;20619;-62
2022/04/02 02:09:08;;;;;;;2.93;2.73;;;;;;;;;;2058782;28;20254;-59
2022/04/02 02:10:29;;;;;;;3.40;2.27;;;;;;;;;;2064954;28;20189;-59
2022/04/02 02:11:36;;;;;;;2.90;2.70;;;;;;;;;;2064711;28;20550;-60
2022/04/02 02:12:44;;;;;;;2.90;2.50;;;;;;;;;;2065923;28;20285;-61
2022/04/02 02:13:58;;;;;;;2.60;2.50;;;;;;;;;;2064813;28;20419;-62
2022/04/02 02:14:59;;;;;;;3.43;3.13;;;;;;;;;;2065248;28;20212;-60
2022/04/02 02:15:59;;;;;;;2.40;2.20;;;;;;;;;;2072974;28;20199;-61
2022/04/02 02:16:59;;;;;;;2.37;2.27;;;;;;;;;;2064482;28;20189;-63
2022/04/02 02:18:00;;;;;;;3.17;2.50;;;;;;;;;;2065113;28;20260;-61
2022/04/02 02:19:00;;;;;;;3.10;2.90;;;;;;;;;;2064353;28;20170;-59
2022/04/02 02:20:00;;;;;;;3.23;2.90;;;;;;;;;;2064253;28;20581;-62
2022/04/02 02:21:01;;;;;;;3.27;2.33;;;;;;;;;;2064586;28;20185;-62
2022/04/02 02:22:02;;;;;;;2.67;2.30;;;;;;;;;;2056944;28;20274;-61
2022/04/02 02:23:02;;;;;;;2.67;2.47;;;;;;;;;;2056596;28;20694;-60
2022/04/02 02:24:04;;;;;;;3.10;2.90;;;;;;;;;;2052137;28;20647;-63
2022/04/02 02:25:05;;;;;;;3.10;2.80;;;;;;;;;;2056101;28;20209;-60
2022/04/02 02:26:06;;;;;;;3.17;2.83;;;;;;;;;;2076178;23;20210;-51
2022/04/02 02:27:08;;;;;;;2.67;2.57;;;;;;;;;;2086405;28;20217;-53
2022/04/02 02:28:08;;;;;;;3.17;2.97;;;;;;;;;;2076857;28;20282;-54
2022/04/02 02:29:08;;;;;;;3.07;2.80;;;;;;;;;;2081027;28;20249;-52
2022/04/02 02:30:13;;;;;;;3.20;2.90;;;;;;;;;;2084035;28;20649;-53
2022/04/02 02:31:13;;;;;;;3.07;2.87;;;;;;;;;;2082543;28;20175;-58
2022/04/02 02:32:13;;;;;;;3.10;2.80;;;;;;;;;;2090406;28;20767;-52
2022/04/02 02:35:52;;;;;;;3.40;3.20;;;;;;;;;;2085135;28;20176;-54
2022/04/02 02:37:05;;;;;;;3.23;3.03;;;;;;;;;;2074529;28;20173;-51
2022/04/02 02:38:08;;;;;;;6.90;3.43;;;;;;;;;;2066295;28;20522;-55
2022/04/02 02:39:14;;;;;;;3.97;2.73;;;;;;;;;;2067641;28;20173;-56
2022/04/02 02:40:20;;;;;;;3.40;3.10;;;;;;;;;;2068679;28;20188;-54
2022/04/02 02:41:21;;;;;;;2.87;2.67;;;;;;;;;;2081409;28;20214;-54
2022/04/02 02:42:25;;;;;;;3.17;2.97;;;;;;;;;;2074638;28;20173;-51
2022/04/02 02:43:33;;;;;;;3.90;3.00;;;;;;;;;;2073857;28;20457;-52
2022/04/02 02:44:43;;;;;;;3.37;3.07;;;;;;;;;;2082473;28;20251;-50
2022/04/02 02:45:50;;;;;;;3.03;2.83;;;;;;;;;;2074906;28;20409;-54
2022/04/02 02:46:50;;;;;;;3.40;3.20;;;;;;;;;;2075279;28;20196;-52
2022/04/02 02:47:58;;;;;;;3.53;3.20;;;;;;;;;;2074893;28;20204;-50
2022/04/02 02:49:06;;;;;;;4.90;3.80;;;;;;;;;;2076414;28;20211;-52
2022/04/02 02:50:06;;;;;;;2.90;2.70;;;;;;;;;;2075834;28;20165;-54
2022/04/02 02:51:16;;;;;;;3.17;2.97;;;;;;;;;;2071048;28;20177;-54
2022/04/02 02:52:16;;;;;;;5.80;3.50;;;;;;;;;;2068912;28;20212;-54
2022/04/02 02:53:18;;;;;;;10.47;3.00;;;;;;;;;;2066781;28;20195;-53
2022/04/02 02:54:19;;;;;;;3.23;2.80;;;;;;;;;;2067048;28;20229;-54
2022/04/02 02:55:20;;;;;;;3.33;3.13;;;;;;;;;;2075173;28;20252;-51
2022/04/02 02:56:21;;;;;;;3.30;3.00;;;;;;;;;;2067452;28;20248;-54
2022/04/02 02:57:24;;;;;;;3.13;2.93;;;;;;;;;;2076346;28;20623;-53
2022/04/02 02:58:24;;;;;;;4.10;3.23;;;;;;;;;;2068151;28;20186;-51
2022/04/02 02:59:24;;;;;;;4.03;3.07;;;;;;;;;;2075400;28;20178;-53
2022/04/02 03:00:25;;;;;;;3.87;3.40;;;;;;;;;;2068821;28;20193;-53
2022/04/02 03:01:29;;;;;;;3.43;3.13;;;;;;;;;;2075573;28;20181;-51
2022/04/02 03:02:31;;;;;;;4.00;3.30;;;;;;;;;;2075123;28;20180;-56
2022/04/02 03:03:32;;;;;;;3.90;3.60;;;;;;;;;;2075970;28;20768;-56
2022/04/02 03:04:35;;;;;;;3.30;3.10;;;;;;;;;;2080851;28;20631;-50
2022/04/02 03:05:44;;;;;;;3.50;3.20;;;;;;;;;;2083624;28;20868;-56
2022/04/02 03:06:46;;;;;;;3.53;3.10;;;;;;;;;;2072940;28;20686;-55
2022/04/02 03:07:51;;;;;;;3.33;3.00;;;;;;;;;;2067370;28;20169;-54
2022/04/02 03:09:01;;;;;;;3.57;3.23;;;;;;;;;;2075098;28;20255;-53
2022/04/02 03:10:01;;;;;;;3.37;3.17;;;;;;;;;;2076671;28;20430;-54
2022/04/02 03:11:04;;;;;;;3.30;3.00;;;;;;;;;;2083079;28;20191;-51
2022/04/02 03:12:07;;;;;;;4.67;3.80;;;;;;;;;;2075491;28;20243;-53
2022/04/02 03:13:08;;;;;;;3.67;3.33;;;;;;;;;;2067418;28;20208;-54
2022/04/02 03:14:08;;;;;;;3.40;3.10;;;;;;;;;;2074663;28;20161;-55
2022/04/02 03:15:09;;;;;;;3.70;2.77;;;;;;;;;;2075143;28;20165;-52
2022/04/02 03:16:10;;;;;;;4.73;3.60;;;;;;;;;;2074550;28;20267;-54
2022/04/02 03:17:21;;;;;;;3.90;3.43;;;;;;;;;;2083530;28;20412;-54
2022/04/02 03:18:22;;;;;;;3.43;3.20;;;;;;;;;;2077026;28;20185;-53
2022/04/02 03:19:24;;;;;;;3.63;3.33;;;;;;;;;;2078606;28;20193;-55
2022/04/02 03:20:26;;;;;;;3.40;3.20;;;;;;;;;;2067467;28;20173;-56
2022/04/02 03:21:28;;;;;;;3.83;3.43;;;;;;;;;;2068286;28;20445;-54
2022/04/02 03:22:35;;;;;;;3.73;3.20;;;;;;;;;;2084415;28;20234;-54
2022/04/02 03:23:35;;;;;;;6.93;3.50;;;;;;;;;;2086041;28;20180;-55
2022/04/02 03:24:36;;;;;;;3.50;3.30;;;;;;;;;;2077494;28;20235;-54
2022/04/02 03:25:40;;;;;;;3.30;3.00;;;;;;;;;;2067881;28;20173;-53
2022/04/02 03:26:41;;;;;;;4.00;3.00;;;;;;;;;;2060444;28;20230;-54
2022/04/02 03:27:50;;;;;;;3.30;3.10;;;;;;;;;;2076972;28;20157;-54
2022/04/02 03:28:50;;;;;;;3.77;3.17;;;;;;;;;;2082548;28;20345;-54
2022/04/02 03:29:54;;;;;;;3.00;2.80;;;;;;;;;;2074862;28;20169;-57
2022/04/02 03:30:55;;;;;;;3.10;2.63;;;;;;;;;;2066475;28;20277;-54
2022/04/02 03:31:55;;;;;;;3.80;3.30;;;;;;;;;;2066548;28;20180;-53
2022/04/02 03:32:57;;;;;;;4.07;3.20;;;;;;;;;;2074660;28;20185;-54
2022/04/02 03:33:57;;;;;;;3.60;3.30;;;;;;;;;;2082451;28;20260;-54
2022/04/02 03:34:58;;;;;;;3.30;3.03;;;;;;;;;;2075885;28;20180;-53
2022/04/02 03:35:59;;;;;;;3.47;3.17;;;;;;;;;;2076445;28;20545;-55
2022/04/02 03:37:00;;;;;;;3.67;3.37;;;;;;;;;;2075857;28;20221;-55
2022/04/02 03:38:01;;;;;;;3.60;3.30;;;;;;;;;;2067406;28;20670;-55
2022/04/02 03:39:02;;;;;;;3.60;3.40;;;;;;;;;;2075600;28;20232;-55
2022/04/02 03:40:04;;;;;;;3.80;3.50;;;;;;;;;;2086555;28;20188;-53
2022/04/02 03:41:04;;;;;;;3.17;2.97;;;;;;;;;;2079890;28;20271;-54
2022/04/02 03:42:06;;;;;;;3.67;3.47;;;;;;;;;;2066959;28;20872;-55
2022/04/02 03:43:06;;;;;;;3.43;3.23;;;;;;;;;;2076169;28;20256;-56
2022/04/02 03:44:10;;;;;;;4.47;3.57;;;;;;;;;;2080059;28;20262;-55
2022/04/02 03:45:11;;;;;;;3.40;3.17;;;;;;;;;;2067169;28;20300;-55
2022/04/02 03:47:33;;;;;;;3.20;3.00;;;;;;;;;;2075770;28;20176;-56
2022/04/02 03:48:36;;;;;;;3.90;3.60;;;;;;;;;;2076277;28;20177;-56
2022/04/02 03:49:40;;;;;;;3.43;3.17;;;;;;;;;;2079628;28;20180;-55
2022/04/02 03:50:41;;;;;;;3.20;3.00;;;;;;;;;;2075524;28;20191;-53
2022/04/02 03:51:46;;;;;;;3.90;3.27;;;;;;;;;;2076912;28;20378;-54
2022/04/02 03:52:53;;;;;;;3.50;3.07;;;;;;;;;;2085133;28;20191;-55
2022/04/02 03:53:59;;;;;;;4.17;3.17;;;;;;;;;;2077821;28;20165;-52
2022/04/02 03:55:00;;;;;;;6.20;3.30;;;;;;;;;;2077507;28;20228;-54
2022/04/02 03:56:02;;;;;;;3.23;2.93;;;;;;;;;;2077685;28;20204;-54
2022/04/02 03:57:13;;;;;;;3.33;2.90;;;;;;;;;;2071070;28;20162;-51
2022/04/02 03:58:14;;;;;;;4.23;3.57;;;;;;;;;;2078135;28;20567;-53
2022/04/02 03:59:14;;;;;;;4.80;3.10;;;;;;;;;;2085209;28;20180;-51
2022/04/02 04:00:19;;;;;;;4.17;3.43;;;;;;;;;;2075555;28;20177;-55
2022/04/02 04:01:27;;;;;;;3.20;2.93;;;;;;;;;;2067332;28;20399;-53
2022/04/02 04:02:27;;;;;;;3.13;2.93;;;;;;;;;;2069625;28;20497;-52
2022/04/02 04:03:28;;;;;;;3.33;3.13;;;;;;;;;;2080452;28;20194;-51
2022/04/02 04:04:29;;;;;;;3.37;3.00;;;;;;;;;;2075122;28;20259;-55
2022/04/02 04:05:31;;;;;;;3.47;3.17;;;;;;;;;;2082970;28;20241;-59
2022/04/02 04:06:34;;;;;;;3.37;3.17;;;;;;;;;;2068561;28;20201;-56
2022/04/02 04:07:36;;;;;;;4.07;3.20;;;;;;;;;;2083970;28;20180;-54
2022/04/02 04:08:37;;;;;;;4.17;3.77;;;;;;;;;;2083340;28;20160;-51
2022/04/02 04:09:37;;;;;;;3.47;3.17;;;;;;;;;;2075286;28;20252;-55
2022/04/02 04:10:38;;;;;;;3.03;2.83;;;;;;;;;;2075813;28;20232;-54
2022/04/02 04:11:38;;;;;;;3.70;3.43;;;;;;;;;;2075009;28;20657;-55
2022/04/02 04:12:39;;;;;;;3.73;3.37;;;;;;;;;;2066726;28;20186;-54
2022/04/02 04:13:41;;;;;;;3.23;3.07;;;;;;;;;;2068018;28;20237;-55
2022/04/02 04:14:41;;;;;;;2.67;2.47;;;;;;;;;;2074999;28;20188;-51
2022/04/02 04:15:41;;;;;;;3.30;3.10;;;;;;;;;;2083686;28;20195;-53
2022/04/02 04:16:43;;;;;;;3.40;3.20;;;;;;;;;;2075377;28;20200;-53
2022/04/02 04:17:44;;;;;;;3.20;3.00;;;;;;;;;;2067042;28;20443;-55
2022/04/02 04:18:46;;;;;;;3.60;3.30;;;;;;;;;;2066711;28;20169;-53
2022/04/02 04:19:47;;;;;;;4.37;3.03;;;;;;;;;;2066950;28;20446;-55
2022/04/02 04:20:49;;;;;;;3.60;3.40;;;;;;;;;;2067302;28;20619;-53
2022/04/02 04:21:56;;;;;;;4.20;3.10;;;;;;;;;;2074782;28;20812;-54
2022/04/02 04:22:58;;;;;;;3.63;3.43;;;;;;;;;;2067182;28;20273;-53
2022/04/02 04:24:04;;;;;;;3.77;3.47;;;;;;;;;;2074030;28;20807;-53
2022/04/02 04:25:05;;;;;;;3.37;3.17;;;;;;;;;;2067173;28;20237;-54
2022/04/02 04:26:06;;;;;;;3.50;3.30;;;;;;;;;;2066425;28;20177;-56
2022/04/02 04:27:12;;;;;;;3.97;3.20;;;;;;;;;;2074904;28;20181;-53
2022/04/02 04:28:17;;;;;;;4.13;3.73;;;;;;;;;;2075951;28;20200;-53
2022/04/02 04:29:19;;;;;;;3.50;3.20;;;;;;;;;;2075398;28;20188;-54
2022/04/02 04:30:19;;;;;;;3.73;3.30;;;;;;;;;;2080925;28;20590;-53
2022/04/02 04:31:20;;;;;;;3.40;3.20;;;;;;;;;;2084145;28;20175;-54
2022/04/02 04:32:21;;;;;;;4.10;3.70;;;;;;;;;;2084340;28;20668;-53
2022/04/02 04:33:21;;;;;;;3.83;3.53;;;;;;;;;;2083564;28;20179;-54
2022/04/02 04:34:21;;;;;;;3.33;3.10;;;;;;;;;;2082833;28;20240;-55
2022/04/02 04:35:22;;;;;;;4.40;3.60;;;;;;;;;;2083582;28;20175;-54
2022/04/02 04:36:24;;;;;;;3.70;3.30;;;;;;;;;;2075322;28;20204;-53
2022/04/02 04:37:25;;;;;;;3.70;3.40;;;;;;;;;;2067504;28;20597;-54
2022/04/02 04:38:26;;;;;;;4.97;3.50;;;;;;;;;;2068037;28;20170;-54
2022/04/02 04:39:28;;;;;;;5.07;3.50;;;;;;;;;;2075660;28;20422;-53
2022/04/02 04:40:30;;;;;;;3.60;3.10;;;;;;;;;;2074138;28;20436;-53
2022/04/02 04:41:32;;;;;;;3.80;3.50;;;;;;;;;;2076207;28;20173;-54
2022/04/02 04:42:35;;;;;;;3.60;3.30;;;;;;;;;;2084283;28;20203;-54
2022/04/02 04:43:37;;;;;;;3.73;3.47;;;;;;;;;;2063916;28;20201;-52
2022/04/02 04:44:37;;;;;;;3.80;3.50;;;;;;;;;;2067600;28;20224;-51
2022/04/02 04:45:39;;;;;;;4.50;4.10;;;;;;;;;;2067881;28;20174;-54
2022/04/02 04:46:40;;;;;;;3.93;3.53;;;;;;;;;;2067654;28;20277;-55
2022/04/02 04:47:45;;;;;;;3.90;3.60;;;;;;;;;;2075851;28;20177;-54
2022/04/02 04:48:46;;;;;;;3.60;3.40;;;;;;;;;;2075719;28;20173;-54
2022/04/02 04:49:46;;;;;;;4.73;4.33;;;;;;;;;;2075584;28;20177;-53
2022/04/02 04:50:47;;;;;;;4.53;3.83;;;;;;;;;;2075232;28;20165;-52
2022/04/02 04:51:47;;;;;;;4.33;3.93;;;;;;;;;;2070469;28;20209;-51
2022/04/02 04:52:48;;;;;;;3.80;3.50;;;;;;;;;;2078580;28;20184;-52
2022/04/02 04:53:51;;;;;;;4.53;3.97;;;;;;;;;;2084120;28;20169;-55
2022/04/02 04:54:53;;;;;;;4.03;3.73;;;;;;;;;;2070346;28;20206;-55
2022/04/02 04:55:54;;;;;;;5.80;4.10;;;;;;;;;;2067416;28;20654;-54
2022/04/02 04:56:57;;;;;;;4.30;3.70;;;;;;;;;;2075978;28;20689;-52
2022/04/02 04:57:58;;;;;;;3.87;3.57;;;;;;;;;;2075673;28;20173;-55
2022/04/02 04:59:02;;;;;;;5.03;3.97;;;;;;;;;;2076209;28;20177;-53
2022/04/02 05:00:05;;;;;;;3.67;3.37;;;;;;;;;;2067567;28;20277;-55
2022/04/02 05:01:09;;;;;;;3.77;3.47;;;;;;;;;;2075519;28;20187;-51
2022/04/02 05:02:12;;;;;;;3.97;3.63;;;;;;;;;;2080059;28;20195;-52
2022/04/02 05:03:12;;;;;;;4.20;3.90;;;;;;;;;;2075210;28;20177;-54
2022/04/02 05:04:17;;;;;;;3.83;3.53;;;;;;;;;;2074542;28;20225;-53
2022/04/02 05:05:21;;;;;;;5.77;4.27;;;;;;;;;;2067303;28;20268;-53
2022/04/02 05:06:22;;;;;;;4.10;3.73;;;;;;;;;;2067268;28;20194;-53
2022/04/02 05:07:28;;;;;;;4.97;4.10;;;;;;;;;;2076531;28;20183;-50
2022/04/02 05:08:31;;;;;;;4.07;3.77;;;;;;;;;;2082747;28;20180;-53
2022/04/02 05:09:33;;;;;;;4.67;3.93;;;;;;;;;;2074453;28;20859;-55
2022/04/02 05:10:38;;;;;;;5.43;3.70;;;;;;;;;;2075689;28;20177;-54
2022/04/02 05:11:39;;;;;;;4.20;3.90;;;;;;;;;;2082679;28;20547;-51
2022/04/02 05:12:42;;;;;;;4.63;3.70;;;;;;;;;;2083932;28;20386;-52
2022/04/02 05:13:45;;;;;;;4.03;3.57;;;;;;;;;;2083779;28;20432;-55
2022/04/02 05:14:51;;;;;;;5.40;3.63;;;;;;;;;;2066824;28;20197;-53
2022/04/02 05:15:55;;;;;;;3.70;3.50;;;;;;;;;;2060529;28;20178;-52
2022/04/02 05:16:58;;;;;;;4.57;4.17;;;;;;;;;;2055876;28;20179;-53
2022/04/02 05:18:03;;;;;;;5.73;4.17;;;;;;;;;;2055657;28;20230;-55
2022/04/02 05:19:06;;;;;;;3.97;3.63;;;;;;;;;;2066226;28;20185;-53
2022/04/02 05:20:11;;;;;;;4.83;4.03;;;;;;;;;;2068815;28;20207;-55
2022/04/02 05:21:12;;;;;;;3.90;3.50;;;;;;;;;;2061812;28;20190;-56
2022/04/02 05:22:13;;;;;;;4.37;3.60;;;;;;;;;;2070833;28;20547;-54
2022/04/02 05:23:20;;;;;;;4.23;3.93;;;;;;;;;;2073689;28;20187;-54
2022/04/02 05:24:24;;;;;;;4.00;3.70;;;;;;;;;;2065409;28;20190;-54
2022/04/02 05:25:27;;;;;;;3.57;3.33;;;;;;;;;;2074201;28;20709;-54
2022/04/02 05:26:30;;;;;;;4.57;4.17;;;;;;;;;;2073673;28;20213;-55
2022/04/02 05:27:39;;;;;;;4.50;4.17;;;;;;;;;;2059770;28;20694;-54
2022/04/02 05:28:39;;;;;;;4.50;4.10;;;;;;;;;;2075046;28;20183;-54
2022/04/02 05:29:39;;;;;;;4.67;3.93;;;;;;;;;;2082621;28;20198;-53
2022/04/02 05:30:40;;;;;;;4.93;4.30;;;;;;;;;;2089717;28;20176;-54
2022/04/02 05:31:43;;;;;;;4.50;4.10;;;;;;;;;;2082599;28;20188;-53
2022/04/02 05:32:43;;;;;;;4.30;3.90;;;;;;;;;;2084156;28;20278;-54
2022/04/02 05:33:44;;;;;;;4.90;4.30;;;;;;;;;;2083255;28;20401;-54
2022/04/02 05:34:44;;;;;;;4.33;3.77;;;;;;;;;;2084451;28;20164;-52
2022/04/02 05:35:44;;;;;;;4.27;3.87;;;;;;;;;;2081225;28;20173;-54
2022/04/02 05:36:44;;;;;;;4.33;3.93;;;;;;;;;;2078003;28;20804;-54
2022/04/02 05:37:45;;;;;;;4.73;3.77;;;;;;;;;;2075465;28;20640;-53
2022/04/02 05:38:46;;;;;;;4.07;3.83;;;;;;;;;;2068607;28;20208;-54
2022/04/02 05:39:47;;;;;;;4.27;3.97;;;;;;;;;;2073266;28;20637;-53
2022/04/02 05:40:47;;;;;;;7.87;3.83;;;;;;;;;;2082259;28;20231;-54
2022/04/02 05:41:48;;;;;;;4.40;4.00;;;;;;;;;;2073388;28;20182;-54
2022/04/02 05:42:49;;;;;;;4.70;4.10;;;;;;;;;;2076532;28;20180;-54
2022/04/02 05:43:49;;;;;;;3.57;3.27;;;;;;;;;;2075521;28;20267;-52
2022/04/02 05:44:50;;;;;;;3.53;3.23;;;;;;;;;;2081711;28;20231;-52
2022/04/02 05:45:50;;;;;;;4.57;3.97;;;;;;;;;;2067446;28;20256;-53
2022/04/02 05:46:50;;;;;;;3.87;3.57;;;;;;;;;;2066753;28;20197;-52
2022/04/02 05:47:51;;;;;;;3.80;3.50;;;;;;;;;;2075302;28;20224;-53
2022/04/02 05:48:51;;;;;;;4.13;3.87;;;;;;;;;;2073140;28;20665;-51
2022/04/02 05:49:52;;;;;;;4.20;3.67;;;;;;;;;;2068014;28;20204;-55
2022/04/02 05:50:52;;;;;;;5.37;4.00;;;;;;;;;;2075974;28;20181;-53
2022/04/02 05:51:53;;;;;;;4.27;3.80;;;;;;;;;;2074406;28;20180;-51
2022/04/02 05:52:53;;;;;;;5.03;4.10;;;;;;;;;;2083852;28;20263;-51
2022/04/02 05:53:53;;;;;;;4.37;3.97;;;;;;;;;;2081079;28;20267;-51
2022/04/02 05:54:53;;;;;;;4.07;3.77;;;;;;;;;;2084618;28;20172;-53
2022/04/02 05:55:54;;;;;;;3.70;3.37;;;;;;;;;;2084367;28;20184;-55
2022/04/02 05:56:54;;;;;;;4.67;4.27;;;;;;;;;;2084612;28;20188;-52
2022/04/02 05:57:54;;;;;;;4.30;3.90;;;;;;;;;;2083703;28;20288;-52
2022/04/02 05:58:55;;;;;;;4.40;4.00;;;;;;;;;;2084601;28;20605;-52
2022/04/02 05:59:55;;;;;;;4.27;3.87;;;;;;;;;;2084847;28;20184;-52
2022/04/02 06:00:56;;;;;;;4.90;4.50;;;;;;;;;;2084166;28;20242;-52
2022/04/02 06:01:56;;;;;;;6.63;5.33;;;;;;;;;;2076468;28;20177;-56
2022/04/02 06:02:56;;;;;;;4.07;3.77;;;;;;;;;;2076410;28;20197;-53
2022/04/02 06:03:57;;;;;;;6.90;4.57;;;;;;;;;;2084403;28;20207;-53
2022/04/02 06:04:57;;;;;;;4.00;3.70;;;;;;;;;;2084112;28;20199;-52
2022/04/02 06:05:57;;;;;;;4.67;4.27;;;;;;;;;;2085273;28;20176;-52
2022/04/02 06:06:57;;;;;;;5.23;4.73;;;;;;;;;;2084214;28;20271;-52
2022/04/02 06:07:58;;;;;;;5.23;3.97;;;;;;;;;;2085873;28;20169;-53
2022/04/02 06:08:58;;;;;;;4.70;4.30;;;;;;;;;;2084823;28;20647;-54
2022/04/02 06:09:58;;;;;;;4.23;3.77;;;;;;;;;;2085035;28;20263;-54
2022/04/02 06:10:59;;;;;;;4.87;4.10;;;;;;;;;;2086109;28;20164;-54
2022/04/02 06:11:59;;;;;;;4.43;4.03;;;;;;;;;;2075886;28;20247;-56
2022/04/02 06:12:59;;;;;;;4.73;4.27;;;;;;;;;;2075365;28;20185;-52
2022/04/02 06:14:00;;;;;;;6.27;4.37;;;;;;;;;;2085334;28;20191;-55
2022/04/02 06:15:00;;;;;;;5.17;4.67;;;;;;;;;;2084859;28;20172;-54
2022/04/02 06:16:00;;;;;;;4.57;4.17;;;;;;;;;;2085654;28;20165;-57
2022/04/02 06:17:01;;;;;;;4.63;4.17;;;;;;;;;;2085746;28;20188;-55